Edinboro, Pennsylvania
Current Conditions -  °F | °C
As of 1:51 AM on Sunday 26 Oct 2014 (Local Time) from KERI Reporting Station
Clear Clear  
Wind Chill: 13°   Ceiling: Unl
Heat Index: 13°   Visibility: 10mi
Dew Point:   Wind: 13mph
Humidity: 45%   Direction: 290°WNW
Pressure: 29.75"   Gusts: 20mph
Location:  41.88°N, 80.13°W
Report Text: KERI 260551Z 29011G17KT 10SM CLR 13/02 A2975 RMK AO2 SLP073 T01330017 10156 20133 51004
Loading
Personal Weather Stations






























Interactive Weather Map
Tropical Storm Tracking
New forecast layout! Learn more

10-Day Weather Forecast

Advertisements
Track Severe Weather on mobile